Time;durP1;ratioP1;P1;durP2;ratioP2;P2;SDS_P1;SDS_P2;PMS_P1;PMS_P2;Temp;Humidity;BMP_temperature;BMP_pressure;BME280_temperature;BME280_humidity;BME280_pressure;Samples;Min_cycle;Max_cycle;Signal;HPM_P1;HPM_P2
2021/06/17 00:00:10;;;;;;;14.90;8.27;;;;;;;;;;5104419;28;20487;-66
2021/06/17 00:02:36;;;;;;;11.52;8.32;;;;;;;;;;5086770;28;20702;-68
2021/06/17 00:05:03;;;;;;;12.20;7.53;;;;;;;;;;5103527;28;20436;-67
2021/06/17 00:07:29;;;;;;;11.98;7.65;;;;;;;;;;5108258;28;20385;-67
2021/06/17 00:09:55;;;;;;;12.00;8.00;;;;;;;;;;5100301;28;20398;-67
2021/06/17 00:12:21;;;;;;;14.35;7.25;;;;;;;;;;5105903;28;20396;-68
2021/06/17 00:14:47;;;;;;;11.77;7.60;;;;;;;;;;5093678;28;20596;-67
2021/06/17 00:17:13;;;;;;;13.93;7.60;;;;;;;;;;5102631;28;20401;-67
2021/06/17 00:19:39;;;;;;;10.57;7.13;;;;;;;;;;5099710;28;20400;-67
2021/06/17 00:22:05;;;;;;;11.98;7.60;;;;;;;;;;5110123;28;20484;-67
2021/06/17 00:24:31;;;;;;;11.57;7.88;;;;;;;;;;5101579;28;20395;-67
2021/06/17 00:26:57;;;;;;;11.63;7.82;;;;;;;;;;5104525;28;20392;-67
2021/06/17 00:29:23;;;;;;;12.48;7.80;;;;;;;;;;5101352;28;20455;-67
2021/06/17 00:31:49;;;;;;;16.80;7.97;;;;;;;;;;5105576;28;20396;-67
2021/06/17 00:34:15;;;;;;;13.82;8.00;;;;;;;;;;5103399;28;20437;-67
2021/06/17 00:36:41;;;;;;;11.40;7.93;;;;;;;;;;5106412;28;20422;-67
2021/06/17 00:39:08;;;;;;;10.02;7.70;;;;;;;;;;5101736;28;20447;-67
2021/06/17 00:41:35;;;;;;;11.38;7.25;;;;;;;;;;5101557;28;20857;-67
2021/06/17 00:44:01;;;;;;;9.57;6.97;;;;;;;;;;5097461;28;20392;-67
2021/06/17 00:46:27;;;;;;;9.30;6.90;;;;;;;;;;5107588;28;20492;-67
2021/06/17 00:48:54;;;;;;;8.75;7.03;;;;;;;;;;5102755;28;20459;-67
2021/06/17 00:51:21;;;;;;;9.17;6.80;;;;;;;;;;5103014;27;20402;-67
2021/06/17 00:53:48;;;;;;;9.13;6.97;;;;;;;;;;5108057;27;20386;-67
2021/06/17 00:56:13;;;;;;;9.07;6.90;;;;;;;;;;5096766;28;20390;-67
2021/06/17 00:58:39;;;;;;;10.93;6.87;;;;;;;;;;5102141;28;20423;-67
2021/06/17 01:01:05;;;;;;;9.87;6.90;;;;;;;;;;5098900;28;20464;-67
2021/06/17 01:03:31;;;;;;;11.20;7.57;;;;;;;;;;5105412;28;20389;-67
2021/06/17 01:05:58;;;;;;;11.02;7.15;;;;;;;;;;5094402;28;20802;-67
2021/06/17 01:08:42;;;;;;;10.20;7.43;;;;;;;;;;5101640;28;20532;-67
2021/06/17 01:11:20;;;;;;;10.13;7.27;;;;;;;;;;5099150;28;20433;-67
2021/06/17 01:13:49;;;;;;;9.95;7.10;;;;;;;;;;5099772;28;20405;-66
2021/06/17 01:16:24;;;;;;;9.43;7.40;;;;;;;;;;5101599;28;20481;-66
2021/06/17 01:18:51;;;;;;;13.45;7.55;;;;;;;;;;5092040;28;20410;-67
2021/06/17 01:21:23;;;;;;;11.15;7.50;;;;;;;;;;5108121;28;20396;-67
2021/06/17 01:24:04;;;;;;;9.18;6.90;;;;;;;;;;5098632;28;20404;-67
2021/06/17 01:26:50;;;;;;;8.23;6.93;;;;;;;;;;5096661;28;20781;-67
2021/06/17 01:29:20;;;;;;;12.60;7.63;;;;;;;;;;5098240;28;20448;-67
2021/06/17 01:31:47;;;;;;;9.60;6.97;;;;;;;;;;5086545;28;20965;-68
2021/06/17 01:34:14;;;;;;;10.60;7.32;;;;;;;;;;5095048;28;20471;-67
2021/06/17 01:36:41;;;;;;;9.45;7.70;;;;;;;;;;5101878;28;20384;-66
2021/06/17 01:39:10;;;;;;;8.65;6.85;;;;;;;;;;5100397;28;20459;-66
2021/06/17 01:41:38;;;;;;;9.63;7.25;;;;;;;;;;5106884;28;20445;-67
2021/06/17 01:44:05;;;;;;;10.15;7.07;;;;;;;;;;5100448;28;20402;-67
2021/06/17 01:46:32;;;;;;;11.10;7.10;;;;;;;;;;5096711;28;20419;-66
2021/06/17 01:48:58;;;;;;;10.65;7.10;;;;;;;;;;5096877;28;20426;-66
2021/06/17 01:51:26;;;;;;;12.35;7.25;;;;;;;;;;5104878;28;20419;-67
2021/06/17 01:53:52;;;;;;;10.77;7.65;;;;;;;;;;5096992;28;20394;-67
2021/06/17 01:56:19;;;;;;;8.17;7.20;;;;;;;;;;5100741;28;20413;-67
2021/06/17 01:58:46;;;;;;;10.55;7.95;;;;;;;;;;5101031;28;20401;-67
2021/06/17 02:01:13;;;;;;;12.38;8.30;;;;;;;;;;5097122;28;20390;-67
2021/06/17 02:03:39;;;;;;;10.35;7.90;;;;;;;;;;5100369;28;20392;-67
2021/06/17 02:06:05;;;;;;;10.48;7.97;;;;;;;;;;5098750;28;20380;-67
2021/06/17 02:08:31;;;;;;;10.70;7.85;;;;;;;;;;5099672;28;20904;-66
2021/06/17 02:10:57;;;;;;;10.05;7.47;;;;;;;;;;5097939;28;20402;-67
2021/06/17 02:13:24;;;;;;;11.80;7.43;;;;;;;;;;5094148;28;20455;-67
2021/06/17 02:15:50;;;;;;;9.45;7.78;;;;;;;;;;5099949;28;20385;-67
2021/06/17 02:18:21;;;;;;;12.25;7.68;;;;;;;;;;5104812;28;20392;-68
2021/06/17 02:20:47;;;;;;;9.57;7.78;;;;;;;;;;5099815;28;20402;-68
2021/06/17 02:23:14;;;;;;;9.52;7.70;;;;;;;;;;5107511;28;20977;-67
2021/06/17 02:25:40;;;;;;;10.95;8.07;;;;;;;;;;5097684;28;20869;-67
2021/06/17 02:28:09;;;;;;;11.57;7.80;;;;;;;;;;5103564;28;20485;-67
2021/06/17 02:30:36;;;;;;;9.45;8.00;;;;;;;;;;5094673;28;20512;-67
2021/06/17 02:33:04;;;;;;;9.95;8.10;;;;;;;;;;5107331;28;20479;-67
2021/06/17 02:35:31;;;;;;;10.70;8.25;;;;;;;;;;5092391;28;20903;-67
2021/06/17 02:37:59;;;;;;;10.95;8.23;;;;;;;;;;5095702;28;20399;-67
2021/06/17 02:40:25;;;;;;;9.10;8.10;;;;;;;;;;5100250;28;20397;-67
2021/06/17 02:42:53;;;;;;;12.27;8.18;;;;;;;;;;5105309;28;20384;-66
2021/06/17 02:45:19;;;;;;;10.30;7.90;;;;;;;;;;5101246;28;20411;-67
2021/06/17 02:47:45;;;;;;;9.52;7.35;;;;;;;;;;5104952;28;20421;-67
2021/06/17 02:50:11;;;;;;;11.75;7.80;;;;;;;;;;5105504;28;20392;-67
2021/06/17 02:52:41;;;;;;;11.68;8.55;;;;;;;;;;5109785;28;20409;-67
2021/06/17 02:55:07;;;;;;;12.60;11.30;;;;;;;;;;5108342;28;20404;-66
2021/06/17 02:57:39;;;;;;;12.63;10.98;;;;;;;;;;5110292;28;20384;-67
2021/06/17 03:00:11;;;;;;;17.80;11.90;;;;;;;;;;5098612;28;20408;-67
2021/06/17 03:02:55;;;;;;;13.98;12.48;;;;;;;;;;5104244;28;20407;-66
2021/06/17 03:05:29;;;;;;;16.43;12.53;;;;;;;;;;5106320;28;20392;-66
2021/06/17 03:08:00;;;;;;;13.90;12.30;;;;;;;;;;5110626;28;20421;-68
2021/06/17 03:10:27;;;;;;;16.90;13.60;;;;;;;;;;5103044;28;20382;-67
2021/06/17 03:12:53;;;;;;;16.98;13.07;;;;;;;;;;5101535;28;20386;-67
2021/06/17 03:15:20;;;;;;;17.52;14.63;;;;;;;;;;5102792;28;20487;-66
2021/06/17 03:17:49;;;;;;;19.08;14.80;;;;;;;;;;5103354;28;20433;-67
2021/06/17 03:20:16;;;;;;;16.73;13.98;;;;;;;;;;5103995;28;20464;-67
2021/06/17 03:22:43;;;;;;;16.85;14.32;;;;;;;;;;5111741;28;20894;-67
2021/06/17 03:25:12;;;;;;;18.25;14.68;;;;;;;;;;5099311;28;20418;-67
2021/06/17 03:27:38;;;;;;;17.58;15.18;;;;;;;;;;5109910;28;20861;-67
2021/06/17 03:30:05;;;;;;;17.08;14.75;;;;;;;;;;5104344;28;20399;-67
2021/06/17 03:32:32;;;;;;;18.70;15.60;;;;;;;;;;5105639;28;20392;-67
2021/06/17 03:34:59;;;;;;;18.10;15.55;;;;;;;;;;5100258;28;20399;-67
2021/06/17 03:37:27;;;;;;;21.38;15.70;;;;;;;;;;5110657;28;20393;-67
2021/06/17 03:39:53;;;;;;;18.17;15.20;;;;;;;;;;5107073;28;20476;-68
2021/06/17 03:42:21;;;;;;;20.47;15.97;;;;;;;;;;5109446;28;20692;-66
2021/06/17 03:44:48;;;;;;;18.00;16.08;;;;;;;;;;5105925;28;20770;-67
2021/06/17 03:47:14;;;;;;;20.17;16.05;;;;;;;;;;5098149;28;20386;-67
2021/06/17 03:49:43;;;;;;;19.60;16.35;;;;;;;;;;5100157;28;20426;-67
2021/06/17 03:52:09;;;;;;;19.77;15.93;;;;;;;;;;5105417;28;20385;-67
2021/06/17 03:54:35;;;;;;;21.75;16.63;;;;;;;;;;5108818;28;20416;-67
2021/06/17 03:57:03;;;;;;;20.75;15.65;;;;;;;;;;5103476;28;20400;-67
2021/06/17 03:59:31;;;;;;;18.05;15.98;;;;;;;;;;5104556;28;20394;-67
2021/06/17 04:01:57;;;;;;;18.95;15.95;;;;;;;;;;5103214;28;20753;-67
2021/06/17 04:04:23;;;;;;;20.83;16.08;;;;;;;;;;5108748;28;20839;-67
2021/06/17 04:06:52;;;;;;;18.98;15.30;;;;;;;;;;5099454;28;20538;-67
2021/06/17 04:09:44;;;;;;;19.05;15.75;;;;;;;;;;5101746;28;20420;-67
2021/06/17 04:12:13;;;;;;;17.35;15.20;;;;;;;;;;5091345;28;20954;-67
2021/06/17 04:14:42;;;;;;;19.70;14.88;;;;;;;;;;5097814;28;20402;-67
2021/06/17 04:17:09;;;;;;;17.67;14.27;;;;;;;;;;5104230;28;20408;-67
2021/06/17 04:19:37;;;;;;;16.17;14.13;;;;;;;;;;5105943;28;20865;-67
2021/06/17 04:22:04;;;;;;;17.42;14.25;;;;;;;;;;5104678;28;20407;-67
2021/06/17 04:24:32;;;;;;;16.48;14.52;;;;;;;;;;5089961;28;20745;-67
2021/06/17 04:26:59;;;;;;;15.63;13.80;;;;;;;;;;5100698;28;20844;-67
2021/06/17 04:29:26;;;;;;;17.90;14.48;;;;;;;;;;5098580;28;20895;-67
2021/06/17 04:31:54;;;;;;;16.65;14.95;;;;;;;;;;5106331;28;20408;-66
2021/06/17 04:34:20;;;;;;;16.23;14.27;;;;;;;;;;5100884;28;20481;-68
2021/06/17 04:36:47;;;;;;;16.80;14.48;;;;;;;;;;5098786;28;20416;-67
2021/06/17 04:39:13;;;;;;;15.43;13.75;;;;;;;;;;5094744;28;20394;-67
2021/06/17 04:41:40;;;;;;;16.63;13.82;;;;;;;;;;5096568;28;20919;-66
2021/06/17 04:44:06;;;;;;;16.73;14.10;;;;;;;;;;5101589;28;20398;-67
2021/06/17 04:46:33;;;;;;;16.20;14.45;;;;;;;;;;5098276;28;20394;-67
2021/06/17 04:49:00;;;;;;;16.77;14.90;;;;;;;;;;5106111;28;20740;-67
2021/06/17 04:51:28;;;;;;;15.40;13.45;;;;;;;;;;5097720;28;20388;-67
2021/06/17 04:53:55;;;;;;;15.00;13.37;;;;;;;;;;5095534;28;20390;-67
2021/06/17 04:56:21;;;;;;;18.95;13.95;;;;;;;;;;5101757;28;20427;-67
2021/06/17 04:58:50;;;;;;;17.10;14.60;;;;;;;;;;5105534;28;20423;-66
2021/06/17 05:01:18;;;;;;;17.38;13.88;;;;;;;;;;5099865;28;20394;-68
2021/06/17 05:03:44;;;;;;;14.93;13.25;;;;;;;;;;5107793;28;20852;-67
2021/06/17 05:06:11;;;;;;;14.88;12.30;;;;;;;;;;5100217;28;20401;-68
2021/06/17 05:11:22;;;;;;;17.60;12.70;;;;;;;;;;5101370;28;20768;-67
2021/06/17 05:13:49;;;;;;;15.40;13.23;;;;;;;;;;5104698;28;20971;-67
2021/06/17 05:16:15;;;;;;;16.83;12.98;;;;;;;;;;5093641;28;20891;-68
2021/06/17 05:18:41;;;;;;;15.88;12.30;;;;;;;;;;5108931;28;20402;-67
2021/06/17 05:21:07;;;;;;;18.02;13.35;;;;;;;;;;5098007;28;20393;-67
2021/06/17 05:23:35;;;;;;;18.63;12.13;;;;;;;;;;5105205;28;20407;-67
2021/06/17 05:26:01;;;;;;;15.65;11.50;;;;;;;;;;5103181;28;20537;-66
2021/06/17 05:28:28;;;;;;;13.25;11.85;;;;;;;;;;5099995;28;20580;-67
2021/06/17 05:30:55;;;;;;;17.95;11.82;;;;;;;;;;5081042;28;20508;-67
2021/06/17 05:33:21;;;;;;;14.00;11.63;;;;;;;;;;5095893;28;20390;-67
2021/06/17 05:35:47;;;;;;;15.23;11.30;;;;;;;;;;5097530;28;20439;-67
2021/06/17 05:38:20;;;;;;;13.70;11.07;;;;;;;;;;5100211;28;20470;-67
2021/06/17 05:40:46;;;;;;;12.53;10.50;;;;;;;;;;5102950;28;20388;-66
2021/06/17 05:43:12;;;;;;;13.68;10.38;;;;;;;;;;5103688;28;20546;-67
2021/06/17 05:45:38;;;;;;;12.63;11.30;;;;;;;;;;5106022;28;20392;-67
2021/06/17 05:48:04;;;;;;;13.85;10.57;;;;;;;;;;5096537;28;20461;-66
2021/06/17 05:50:31;;;;;;;13.20;10.00;;;;;;;;;;5100666;28;20388;-67
2021/06/17 05:52:57;;;;;;;11.77;9.50;;;;;;;;;;5097397;28;20396;-67
2021/06/17 05:55:23;;;;;;;13.02;9.93;;;;;;;;;;5103515;28;20487;-67
2021/06/17 05:57:49;;;;;;;11.27;9.25;;;;;;;;;;5099604;28;20415;-67
2021/06/17 06:00:16;;;;;;;11.35;9.02;;;;;;;;;;5101857;28;20390;-67
2021/06/17 06:02:42;;;;;;;12.93;9.25;;;;;;;;;;5093395;28;20392;-67
2021/06/17 06:05:08;;;;;;;12.13;8.82;;;;;;;;;;5097579;28;20405;-67
2021/06/17 06:07:34;;;;;;;12.20;8.27;;;;;;;;;;5096309;28;21211;-67
2021/06/17 06:10:00;;;;;;;12.73;8.45;;;;;;;;;;5099185;28;20392;-67
2021/06/17 06:12:28;;;;;;;16.20;8.43;;;;;;;;;;5098086;28;20399;-67
2021/06/17 06:14:54;;;;;;;14.10;8.10;;;;;;;;;;5098758;28;20839;-68
2021/06/17 06:17:19;;;;;;;11.82;7.85;;;;;;;;;;5100262;28;20388;-68
2021/06/17 06:19:46;;;;;;;11.85;8.25;;;;;;;;;;5097819;28;20465;-67
2021/06/17 06:22:12;;;;;;;10.90;7.80;;;;;;;;;;5100331;28;20397;-67
2021/06/17 06:24:38;;;;;;;11.05;7.65;;;;;;;;;;5105206;28;20457;-67
2021/06/17 06:27:05;;;;;;;13.00;7.68;;;;;;;;;;5092262;28;20431;-67
2021/06/17 06:29:31;;;;;;;10.23;6.53;;;;;;;;;;5089198;28;20731;-67
2021/06/17 06:31:57;;;;;;;9.63;7.22;;;;;;;;;;5105645;28;20529;-67
2021/06/17 06:34:24;;;;;;;11.70;7.00;;;;;;;;;;5100032;28;20398;-67
2021/06/17 06:36:50;;;;;;;9.32;6.53;;;;;;;;;;5110131;28;20432;-67
2021/06/17 06:39:17;;;;;;;7.80;6.40;;;;;;;;;;5106229;28;20428;-67
2021/06/17 06:41:43;;;;;;;11.07;6.53;;;;;;;;;;5100071;28;20393;-67
2021/06/17 06:44:10;;;;;;;9.35;6.53;;;;;;;;;;5103443;28;20395;-67
2021/06/17 06:46:36;;;;;;;9.20;6.32;;;;;;;;;;5103297;28;20387;-67
2021/06/17 06:49:02;;;;;;;7.90;5.85;;;;;;;;;;5105962;28;20461;-67
2021/06/17 06:51:28;;;;;;;9.27;6.05;;;;;;;;;;5107426;27;20435;-67
2021/06/17 06:53:54;;;;;;;8.15;5.78;;;;;;;;;;5107942;28;20400;-68
2021/06/17 06:56:20;;;;;;;7.55;5.43;;;;;;;;;;5105887;28;20395;-67
2021/06/17 06:58:46;;;;;;;8.57;5.90;;;;;;;;;;5100363;28;20489;-68
2021/06/17 07:01:12;;;;;;;9.45;6.07;;;;;;;;;;5106903;28;20402;-67
2021/06/17 07:03:39;;;;;;;8.70;5.82;;;;;;;;;;5103060;28;20393;-67
2021/06/17 07:06:06;;;;;;;8.18;5.50;;;;;;;;;;5103608;28;20799;-67
2021/06/17 07:08:32;;;;;;;9.50;5.70;;;;;;;;;;5105979;28;21148;-68
2021/06/17 07:10:58;;;;;;;9.77;5.63;;;;;;;;;;5104584;28;20386;-68
2021/06/17 07:13:25;;;;;;;8.13;5.32;;;;;;;;;;5109632;28;20432;-70
2021/06/17 07:15:51;;;;;;;8.15;5.32;;;;;;;;;;5096758;28;20485;-67
2021/06/17 07:18:17;;;;;;;8.20;5.35;;;;;;;;;;5099645;28;20834;-67
2021/06/17 07:20:43;;;;;;;7.70;5.20;;;;;;;;;;5096302;27;20398;-66
2021/06/17 07:23:09;;;;;;;8.15;4.90;;;;;;;;;;5101576;28;20390;-67
2021/06/17 07:25:35;;;;;;;7.47;5.15;;;;;;;;;;5106011;28;20399;-67
2021/06/17 07:28:01;;;;;;;8.18;4.93;;;;;;;;;;5107536;28;20802;-67
2021/06/17 07:30:27;;;;;;;6.10;4.63;;;;;;;;;;5098728;28;20473;-67
2021/06/17 07:32:53;;;;;;;7.55;4.90;;;;;;;;;;5101490;28;20393;-67
2021/06/17 07:35:19;;;;;;;7.50;4.70;;;;;;;;;;5101821;28;20396;-68
2021/06/17 07:37:46;;;;;;;6.30;4.80;;;;;;;;;;5104213;28;20788;-67
2021/06/17 07:40:13;;;;;;;7.03;4.80;;;;;;;;;;5101914;28;20393;-67
2021/06/17 07:42:39;;;;;;;9.32;4.95;;;;;;;;;;5083209;28;20758;-67
2021/06/17 07:45:06;;;;;;;6.40;4.57;;;;;;;;;;5098926;28;20392;-67
2021/06/17 07:47:32;;;;;;;8.82;4.88;;;;;;;;;;5102066;28;20392;-67
2021/06/17 07:49:58;;;;;;;8.55;4.85;;;;;;;;;;5102251;28;20408;-67
2021/06/17 07:52:24;;;;;;;7.25;4.30;;;;;;;;;;5095865;28;20396;-68
2021/06/17 07:54:50;;;;;;;8.63;4.70;;;;;;;;;;5101818;27;20433;-66
2021/06/17 07:57:16;;;;;;;8.88;4.53;;;;;;;;;;5101482;28;20402;-68
2021/06/17 07:59:42;;;;;;;10.63;4.63;;;;;;;;;;5099427;28;20401;-67
2021/06/17 08:02:08;;;;;;;9.47;4.10;;;;;;;;;;5099983;28;20420;-68
2021/06/17 08:04:35;;;;;;;9.20;4.35;;;;;;;;;;5103653;28;20837;-65
2021/06/17 08:07:01;;;;;;;11.85;4.43;;;;;;;;;;5096682;28;20404;-69
2021/06/17 08:09:27;;;;;;;11.20;4.47;;;;;;;;;;5086634;28;20421;-68
2021/06/17 08:11:53;;;;;;;13.48;4.50;;;;;;;;;;5102200;28;20400;-69
2021/06/17 08:14:24;;;;;;;15.30;4.45;;;;;;;;;;5082030;27;21651;-69
2021/06/17 08:16:50;;;;;;;9.63;4.30;;;;;;;;;;5103489;27;20766;-68
2021/06/17 08:19:16;;;;;;;12.20;5.00;;;;;;;;;;5108662;28;20385;-69
2021/06/17 08:21:42;;;;;;;11.25;4.50;;;;;;;;;;5107779;28;20576;-68
2021/06/17 08:24:09;;;;;;;8.05;4.65;;;;;;;;;;5103465;27;20424;-66
2021/06/17 08:26:35;;;;;;;11.23;4.47;;;;;;;;;;5105214;27;20391;-66
2021/06/17 08:29:01;;;;;;;10.35;4.97;;;;;;;;;;5087925;28;20770;-66
2021/06/17 08:31:31;;;;;;;10.10;5.10;;;;;;;;;;5103318;28;20434;-65
2021/06/17 08:33:57;;;;;;;17.63;4.97;;;;;;;;;;5095092;28;20388;-67
2021/06/17 08:36:23;;;;;;;8.50;4.47;;;;;;;;;;5103885;28;20396;-66
2021/06/17 08:38:49;;;;;;;8.38;4.78;;;;;;;;;;5099853;27;20393;-67
2021/06/17 08:41:15;;;;;;;10.07;4.70;;;;;;;;;;5099735;27;20402;-67
2021/06/17 08:43:42;;;;;;;8.77;5.10;;;;;;;;;;5105028;28;22190;-67
2021/06/17 08:46:08;;;;;;;11.55;5.47;;;;;;;;;;5104469;28;20457;-67
2021/06/17 08:48:34;;;;;;;13.35;5.22;;;;;;;;;;5099575;28;21056;-67
2021/06/17 08:51:00;;;;;;;12.88;5.88;;;;;;;;;;5105957;28;20454;-66
2021/06/17 08:53:26;;;;;;;10.27;5.28;;;;;;;;;;5096413;28;20491;-67
2021/06/17 08:55:52;;;;;;;14.05;5.60;;;;;;;;;;5096845;28;20504;-66
2021/06/17 08:58:18;;;;;;;9.18;5.10;;;;;;;;;;5093298;28;20846;-67
2021/06/17 09:00:46;;;;;;;10.48;5.72;;;;;;;;;;5090807;28;20481;-66
2021/06/17 09:03:15;;;;;;;12.23;5.60;;;;;;;;;;5096840;28;20419;-67
2021/06/17 09:05:42;;;;;;;9.90;5.57;;;;;;;;;;5103300;27;20400;-67
2021/06/17 09:08:09;;;;;;;12.75;6.30;;;;;;;;;;5098414;28;20422;-67
2021/06/17 09:10:39;;;;;;;11.65;5.40;;;;;;;;;;5109431;28;20403;-66
2021/06/17 09:13:05;;;;;;;10.80;4.88;;;;;;;;;;5099760;28;20397;-67
2021/06/17 09:15:34;;;;;;;9.18;5.10;;;;;;;;;;5107847;28;20385;-66
2021/06/17 09:18:11;;;;;;;10.82;5.03;;;;;;;;;;5108600;28;20524;-67
2021/06/17 09:20:37;;;;;;;10.07;5.00;;;;;;;;;;5089226;28;21067;-67
2021/06/17 09:23:19;;;;;;;10.90;5.30;;;;;;;;;;5118443;27;20477;-66
2021/06/17 09:25:45;;;;;;;;;;;;;;;;;;5108985;28;19915;-67
2021/06/17 09:28:11;;;;;;;;;;;;;;;;;;5108084;28;19927;-67
2021/06/17 09:30:36;;;;;;;;;;;;;;;;;;5100569;28;19982;-67
2021/06/17 09:33:10;;;;;;;;;;;;;;;;;;5108758;27;20234;-67
2021/06/17 09:35:37;;;;;;;;;;;;;;;;;;5111642;27;19916;-67
2021/06/17 09:38:05;;;;;;;;;;;;;;;;;;5102529;27;19912;-67
2021/06/17 09:40:31;;;;;;;;;;;;;;;;;;5102877;28;19920;-67
2021/06/17 09:42:57;;;;;;;;;;;;;;;;;;5101699;28;20223;-68
2021/06/17 09:45:23;;;;;;;;;;;;;;;;;;5107092;28;19958;-67
2021/06/17 09:47:49;;;;;;;10.82;5.18;;;;;;;;;;5103994;28;20841;-67
2021/06/17 09:50:26;;;;;;;7.82;4.40;;;;;;;;;;5105770;27;20501;-67
2021/06/17 09:52:53;;;;;;;10.57;5.03;;;;;;;;;;5102310;28;20400;-67
2021/06/17 09:55:49;;;;;;;9.07;4.70;;;;;;;;;;5100035;28;20386;-67
2021/06/17 09:58:34;;;;;;;9.32;4.63;;;;;;;;;;5076020;28;20895;-66
2021/06/17 10:01:01;;;;;;;8.30;4.60;;;;;;;;;;5096216;28;20413;-67
2021/06/17 10:03:27;;;;;;;;;;;;;;;;;;5096664;28;20746;-66
2021/06/17 10:05:53;;;;;;;;;;;;;;;;;;5092019;28;19923;-67
2021/06/17 10:08:19;;;;;;;;;;;;;;;;;;5092820;28;19984;-67
2021/06/17 10:10:46;;;;;;;;;;;;;;;;;;5099164;28;20796;-67
2021/06/17 10:13:15;;;;;;;6.85;4.80;;;;;;;;;;5104653;28;20421;-68
2021/06/17 10:15:41;;;;;;;;;;;;;;;;;;5088776;28;20444;-67
2021/06/17 10:18:07;;;;;;;;;;;;;;;;;;5105264;28;19908;-67
2021/06/17 10:20:33;;;;;;;;;;;;;;;;;;5086187;28;20833;-68
2021/06/17 10:23:01;;;;;;;;;;;;;;;;;;5102507;28;19915;-68
2021/06/17 10:25:28;;;;;;;;;;;;;;;;;;5110462;28;20544;-68
2021/06/17 10:28:04;;;;;;;;;;;;;;;;;;5109448;28;20012;-68
2021/06/17 10:30:30;;;;;;;;;;;;;;;;;;5088014;28;19978;-69
2021/06/17 10:32:58;;;;;;;6.97;4.30;;;;;;;;;;5080931;28;20578;-68
2021/06/17 10:35:28;;;;;;;9.02;4.72;;;;;;;;;;5104296;28;20428;-68
2021/06/17 10:38:01;;;;;;;9.60;4.38;;;;;;;;;;5075169;28;20388;-69
2021/06/17 10:40:29;;;;;;;8.63;4.40;;;;;;;;;;5082496;28;20404;-68
2021/06/17 10:42:57;;;;;;;6.75;4.30;;;;;;;;;;5081646;28;20394;-69
2021/06/17 10:45:42;;;;;;;7.72;4.20;;;;;;;;;;5082277;28;20486;-69
2021/06/17 10:48:08;;;;;;;;;;;;;;;;;;5096112;28;20427;-66
2021/06/17 10:50:34;;;;;;;;;;;;;;;;;;5100340;28;20345;-66
2021/06/17 10:53:01;;;;;;;;;;;;;;;;;;5106285;28;19916;-68
2021/06/17 10:55:26;;;;;;;;;;;;;;;;;;5111477;28;19908;-66
2021/06/17 10:57:52;;;;;;;;;;;;;;;;;;5102204;28;20330;-67
2021/06/17 11:00:18;;;;;;;;;;;;;;;;;;5094126;28;19966;-67
2021/06/17 11:02:44;;;;;;;;;;;;;;;;;;5109079;28;19912;-67
2021/06/17 11:05:10;;;;;;;;;;;;;;;;;;5096977;28;20006;-67
2021/06/17 11:07:36;;;;;;;;;;;;;;;;;;5092890;28;19943;-67
2021/06/17 11:10:04;;;;;;;9.75;5.00;;;;;;;;;;5110590;27;20876;-68
2021/06/17 11:12:30;;;;;;;8.10;5.07;;;;;;;;;;5101109;28;20866;-67
2021/06/17 11:14:58;;;;;;;9.47;4.37;;;;;;;;;;5101597;28;20488;-68
2021/06/17 11:17:31;;;;;;;8.83;5.07;;;;;;;;;;5098746;27;20894;-68
2021/06/17 11:19:57;;;;;;;11.23;8.45;;;;;;;;;;5103755;28;20910;-68
2021/06/17 11:22:33;;;;;;;9.73;5.80;;;;;;;;;;5099282;28;20400;-68
2021/06/17 11:25:10;;;;;;;9.27;5.37;;;;;;;;;;5100019;28;20390;-69
2021/06/17 11:27:36;;;;;;;7.63;5.57;;;;;;;;;;5111018;28;20423;-69
2021/06/17 11:30:02;;;;;;;8.98;5.07;;;;;;;;;;5110098;28;21109;-69
2021/06/17 11:32:29;;;;;;;9.63;4.45;;;;;;;;;;5104480;28;20384;-69
2021/06/17 11:34:55;;;;;;;8.23;4.65;;;;;;;;;;5099501;28;20473;-67
2021/06/17 11:37:22;;;;;;;7.88;4.40;;;;;;;;;;5097096;28;20393;-67
2021/06/17 11:39:48;;;;;;;7.18;4.30;;;;;;;;;;5101357;28;20490;-68
2021/06/17 11:42:19;;;;;;;9.48;5.00;;;;;;;;;;5098089;28;20396;-67
2021/06/17 11:44:45;;;;;;;8.80;4.90;;;;;;;;;;5097921;27;20463;-68
2021/06/17 11:47:14;;;;;;;10.02;4.80;;;;;;;;;;5110116;27;20414;-67
2021/06/17 11:49:43;;;;;;;11.60;4.67;;;;;;;;;;5095166;28;20414;-67
2021/06/17 11:52:16;;;;;;;10.88;4.82;;;;;;;;;;5087780;28;20766;-67
2021/06/17 11:54:44;;;;;;;11.32;4.68;;;;;;;;;;5095489;28;20895;-67
2021/06/17 11:57:10;;;;;;;11.93;4.97;;;;;;;;;;5104828;28;20777;-67
2021/06/17 11:59:37;;;;;;;10.05;4.50;;;;;;;;;;5102124;27;20495;-68
2021/06/17 12:02:14;;;;;;;15.00;4.43;;;;;;;;;;5104432;28;20392;-67
2021/06/17 12:04:43;;;;;;;8.50;4.30;;;;;;;;;;5096368;28;20444;-67
2021/06/17 12:07:10;;;;;;;8.75;4.25;;;;;;;;;;5100785;28;20475;-66
2021/06/17 12:09:37;;;;;;;12.18;4.63;;;;;;;;;;5095473;28;20742;-66
2021/06/17 12:12:17;;;;;;;9.30;4.20;;;;;;;;;;5103733;28;20766;-67
2021/06/17 12:15:03;;;;;;;11.13;4.43;;;;;;;;;;5088330;28;20743;-67
2021/06/17 12:17:31;;;;;;;10.57;4.45;;;;;;;;;;5103271;28;20795;-67
2021/06/17 12:19:58;;;;;;;10.20;4.13;;;;;;;;;;5104130;28;20417;-67
2021/06/17 12:22:24;;;;;;;9.52;4.15;;;;;;;;;;5096500;28;20900;-67
2021/06/17 12:24:50;;;;;;;10.47;4.00;;;;;;;;;;5100248;28;20909;-67
2021/06/17 12:27:19;;;;;;;9.98;4.28;;;;;;;;;;5090125;28;20698;-67
2021/06/17 12:29:46;;;;;;;11.07;4.28;;;;;;;;;;5106394;28;20404;-67
2021/06/17 12:32:13;;;;;;;8.50;3.87;;;;;;;;;;5104033;28;20388;-66
2021/06/17 12:34:40;;;;;;;7.38;3.75;;;;;;;;;;5102216;28;20395;-66
2021/06/17 12:37:09;;;;;;;9.40;3.95;;;;;;;;;;5102574;28;20511;-67
2021/06/17 12:39:35;;;;;;;10.03;3.97;;;;;;;;;;5109204;27;20965;-66
2021/06/17 12:42:08;;;;;;;9.00;3.58;;;;;;;;;;5108275;28;20397;-66
2021/06/17 12:44:40;;;;;;;9.88;4.20;;;;;;;;;;5108488;28;20424;-67
2021/06/17 12:47:15;;;;;;;11.40;3.63;;;;;;;;;;5102311;27;20744;-68
2021/06/17 12:52:31;;;;;;;9.88;3.42;;;;;;;;;;5101074;28;20504;-68
2021/06/17 12:54:58;;;;;;;10.15;3.38;;;;;;;;;;5103706;27;20481;-67
2021/06/17 12:57:24;;;;;;;5.30;2.70;;;;;;;;;;5102425;27;20392;-68
2021/06/17 12:59:50;;;;;;;7.28;3.00;;;;;;;;;;5098788;28;21039;-67
2021/06/17 13:02:22;;;;;;;7.00;2.97;;;;;;;;;;5105316;28;20419;-67
2021/06/17 13:05:01;;;;;;;8.95;2.70;;;;;;;;;;5096037;28;20854;-67
2021/06/17 13:07:28;;;;;;;8.55;3.15;;;;;;;;;;5094435;28;20741;-67
2021/06/17 13:10:09;;;;;;;6.88;3.10;;;;;;;;;;5093323;28;20429;-66
2021/06/17 13:12:35;;;;;;;9.25;3.00;;;;;;;;;;5094025;27;20412;-67
2021/06/17 13:15:03;;;;;;;7.63;3.07;;;;;;;;;;5097277;28;20827;-67
2021/06/17 13:17:30;;;;;;;12.02;3.08;;;;;;;;;;5095537;28;20407;-67
2021/06/17 13:19:58;;;;;;;8.25;3.10;;;;;;;;;;5096900;28;20853;-67
2021/06/17 13:22:24;;;;;;;11.82;2.88;;;;;;;;;;5107065;28;20384;-67
2021/06/17 13:24:50;;;;;;;9.05;2.90;;;;;;;;;;5106081;28;20399;-67
2021/06/17 13:27:17;;;;;;;6.72;2.63;;;;;;;;;;5099429;28;20724;-67
2021/06/17 13:29:53;;;;;;;7.45;2.90;;;;;;;;;;5091220;28;20473;-66
2021/06/17 13:32:19;;;;;;;9.68;3.03;;;;;;;;;;5098909;28;20459;-68
2021/06/17 13:34:46;;;;;;;7.43;2.70;;;;;;;;;;5099158;28;20858;-67
2021/06/17 13:37:12;;;;;;;8.25;2.70;;;;;;;;;;5100176;28;20464;-67
2021/06/17 13:39:38;;;;;;;12.02;3.42;;;;;;;;;;5099981;28;20714;-66
2021/06/17 13:42:04;;;;;;;7.43;3.00;;;;;;;;;;5097131;28;20390;-67
2021/06/17 13:44:32;;;;;;;7.18;2.90;;;;;;;;;;5095284;28;20404;-66
2021/06/17 13:46:58;;;;;;;9.45;2.92;;;;;;;;;;5102481;28;20392;-67
2021/06/17 13:49:24;;;;;;;11.35;2.88;;;;;;;;;;5104513;28;20430;-67
2021/06/17 13:51:51;;;;;;;7.22;2.80;;;;;;;;;;5101462;28;20693;-67
2021/06/17 13:54:23;;;;;;;9.88;2.70;;;;;;;;;;5103287;27;20464;-67
2021/06/17 13:56:50;;;;;;;7.97;3.13;;;;;;;;;;5107982;28;20388;-67
2021/06/17 13:59:16;;;;;;;12.95;3.58;;;;;;;;;;5107683;28;20398;-67
2021/06/17 14:01:42;;;;;;;10.07;3.28;;;;;;;;;;5095732;28;20410;-67
2021/06/17 14:04:14;;;;;;;11.57;3.25;;;;;;;;;;5097795;28;20915;-67
2021/06/17 14:06:40;;;;;;;10.50;3.30;;;;;;;;;;5098761;28;20438;-67
2021/06/17 14:09:06;;;;;;;11.40;3.30;;;;;;;;;;5099628;28;20424;-67
2021/06/17 14:11:32;;;;;;;12.25;3.30;;;;;;;;;;5108529;28;20715;-67
2021/06/17 14:13:58;;;;;;;8.57;3.00;;;;;;;;;;5104296;28;20393;-67
2021/06/17 14:16:24;;;;;;;7.77;3.30;;;;;;;;;;5106432;28;20415;-67
2021/06/17 14:18:50;;;;;;;9.05;2.92;;;;;;;;;;5097237;28;20433;-67
2021/06/17 14:21:16;;;;;;;6.53;3.03;;;;;;;;;;5103725;28;20396;-67
2021/06/17 14:23:42;;;;;;;7.70;2.88;;;;;;;;;;5107237;28;20392;-67
2021/06/17 14:26:08;;;;;;;8.00;3.20;;;;;;;;;;5104355;28;20398;-67
2021/06/17 14:28:34;;;;;;;9.50;3.30;;;;;;;;;;5100388;28;20844;-68
2021/06/17 14:31:00;;;;;;;8.98;3.38;;;;;;;;;;5096247;28;20394;-67
2021/06/17 14:33:28;;;;;;;7.47;2.83;;;;;;;;;;5109061;28;20411;-67
2021/06/17 14:35:54;;;;;;;10.13;3.33;;;;;;;;;;5099439;28;21348;-67
2021/06/17 14:38:20;;;;;;;9.63;3.20;;;;;;;;;;5101590;28;20405;-67
2021/06/17 14:40:46;;;;;;;7.55;2.95;;;;;;;;;;5095221;28;20450;-67
2021/06/17 14:43:12;;;;;;;12.30;2.60;;;;;;;;;;5108038;28;20437;-68
2021/06/17 14:45:38;;;;;;;6.90;3.13;;;;;;;;;;5107927;28;20396;-68
2021/06/17 14:48:04;;;;;;;9.45;2.78;;;;;;;;;;5111408;28;20384;-67